Tsetserleg, Mongolia
Current Conditions -  °F | °C
As of 8:30 PM on Friday 19 Dec 2014 (Local Time) from ZMUB Reporting Station
Clear Clear  
Wind Chill: -31°   Ceiling: Unl
Heat Index: -15°   Visibility: 6mi
Dew Point: -22°   Wind: 7mph
Humidity: 70%   Direction: 160°SSE
Pressure: 30.27"   Gusts: NA
Location:  47.46°N, 101.46°E
Report Text: ZMUB 191230Z 16003MPS CAVOK M26/M30 Q1025 NOSIG RMK QFE660.5 72
Loading
Personal Weather Stations






























Interactive Weather Map New forecast layout! Learn more

10-Day Weather Forecast

Advertisements
Track Severe Weather on mobile